Time;durP1;ratioP1;P1;durP2;ratioP2;P2;SDS_P1;SDS_P2;PMS_P1;PMS_P2;Temp;Humidity;BMP_temperature;BMP_pressure;BME280_temperature;BME280_humidity;BME280_pressure;Samples;Min_cycle;Max_cycle;Signal;HPM_P1;HPM_P2
2023/12/07 00:00:11;;;;;;;9.83;6.77;;;9.20;60.10;;;;;;345549;28;1824;-58
2023/12/07 00:00:21;;;;;;;9.73;6.82;;;9.20;60.00;;;;;;345540;28;1020;-58
2023/12/07 00:00:32;;;;;;;8.98;6.70;;;9.20;59.90;;;;;;345607;28;1040;-59
2023/12/07 00:00:43;;;;;;;8.17;6.70;;;9.20;59.90;;;;;;345551;28;866;-59
2023/12/07 00:00:54;;;;;;;8.07;6.40;;;9.20;59.90;;;;;;345346;28;1858;-59
2023/12/07 00:01:05;;;;;;;8.00;6.28;;;9.20;60.00;;;;;;345555;28;1032;-58
2023/12/07 00:01:15;;;;;;;7.95;6.00;;;9.20;59.90;;;;;;345602;28;1003;-59
2023/12/07 00:01:26;;;;;;;8.65;6.32;;;9.20;59.90;;;;;;345515;28;965;-59
2023/12/07 00:01:37;;;;;;;9.45;6.22;;;9.20;59.90;;;;;;345392;28;1084;-58
2023/12/07 00:01:48;;;;;;;9.73;6.43;;;9.20;59.90;;;;;;345583;28;1284;-57
2023/12/07 00:01:58;;;;;;;9.07;6.13;;;9.20;60.00;;;;;;345612;28;956;-57
2023/12/07 00:02:09;;;;;;;8.38;6.32;;;9.20;60.00;;;;;;345612;28;834;-59
2023/12/07 00:02:20;;;;;;;8.45;6.50;;;9.20;60.00;;;;;;345457;28;996;-59
2023/12/07 00:02:31;;;;;;;8.00;6.55;;;9.20;59.90;;;;;;345550;28;1131;-57
2023/12/07 00:02:41;;;;;;;8.30;6.38;;;9.20;59.90;;;;;;345629;28;1497;-58
2023/12/07 00:02:52;;;;;;;7.67;6.30;;;9.20;59.90;;;;;;345519;28;1012;-58
2023/12/07 00:03:06;;;;;;;8.05;6.35;;;9.20;59.90;;;;;;345492;28;1031;-58
2023/12/07 00:03:17;;;;;;;8.27;6.35;;;9.10;59.90;;;;;;345655;28;976;-58
2023/12/07 00:03:28;;;;;;;8.38;6.40;;;9.20;60.00;;;;;;345556;28;1237;-58
2023/12/07 00:03:39;;;;;;;8.63;6.43;;;9.10;60.00;;;;;;345581;28;1143;-58
2023/12/07 00:03:49;;;;;;;8.52;6.45;;;9.20;60.00;;;;;;345443;28;1003;-59
2023/12/07 00:04:01;;;;;;;8.20;6.18;;;9.10;60.00;;;;;;345545;28;854;-59
2023/12/07 00:04:11;;;;;;;8.32;6.18;;;9.10;60.00;;;;;;345567;28;976;-59
2023/12/07 00:04:22;;;;;;;9.23;6.63;;;9.10;60.00;;;;;;345591;28;844;-59
2023/12/07 00:04:33;;;;;;;9.10;6.45;;;9.20;60.00;;;;;;345543;28;1013;-59
2023/12/07 00:04:44;;;;;;;9.63;6.57;;;9.20;60.00;;;;;;345600;28;912;-59
2023/12/07 00:04:54;;;;;;;10.20;6.50;;;9.10;60.00;;;;;;345609;28;822;-59
2023/12/07 00:05:06;;;;;;;9.90;6.50;;;9.10;59.90;;;;;;345574;28;1139;-59
2023/12/07 00:05:16;;;;;;;9.52;6.32;;;9.20;60.00;;;;;;345488;28;1640;-57
2023/12/07 00:05:27;;;;;;;8.15;6.10;;;9.20;60.00;;;;;;345575;28;979;-58
2023/12/07 00:05:38;;;;;;;8.00;6.07;;;9.10;60.00;;;;;;345559;28;1432;-58
2023/12/07 00:05:49;;;;;;;7.72;5.95;;;9.10;60.00;;;;;;345555;28;1147;-59
2023/12/07 00:06:00;;;;;;;8.25;6.20;;;9.10;60.00;;;;;;345476;28;980;-59
2023/12/07 00:06:10;;;;;;;8.20;6.30;;;9.10;60.00;;;;;;345603;28;964;-59
2023/12/07 00:06:21;;;;;;;8.37;6.40;;;9.10;60.00;;;;;;345592;28;1807;-59
2023/12/07 00:06:32;;;;;;;8.52;6.45;;;9.20;60.00;;;;;;345576;28;1024;-59
2023/12/07 00:06:43;;;;;;;8.30;6.43;;;9.10;60.00;;;;;;345462;28;1174;-58
2023/12/07 00:06:53;;;;;;;8.70;6.47;;;9.10;60.00;;;;;;345542;28;1023;-58
2023/12/07 00:07:04;;;;;;;8.43;6.40;;;9.10;60.00;;;;;;345581;28;1053;-59
2023/12/07 00:07:15;;;;;;;7.88;6.45;;;9.10;60.10;;;;;;345564;28;822;-59
2023/12/07 00:07:25;;;;;;;8.48;6.40;;;9.10;60.10;;;;;;345544;28;1052;-58
2023/12/07 00:07:36;;;;;;;8.52;6.50;;;9.10;60.10;;;;;;345478;28;1129;-59
2023/12/07 00:07:47;;;;;;;7.82;6.50;;;9.10;60.10;;;;;;345549;28;1060;-58
2023/12/07 00:07:58;;;;;;;7.50;6.37;;;9.10;60.10;;;;;;345437;28;1008;-58
2023/12/07 00:08:11;;;;;;;8.07;6.13;;;9.10;60.10;;;;;;345552;28;881;-58
2023/12/07 00:08:22;;;;;;;9.65;6.50;;;9.10;60.10;;;;;;345438;28;1091;-59
2023/12/07 00:08:33;;;;;;;11.82;6.80;;;9.10;60.10;;;;;;345622;28;877;-59
2023/12/07 00:08:44;;;;;;;11.10;6.80;;;9.10;60.10;;;;;;345538;28;1007;-58
2023/12/07 00:08:54;;;;;;;11.07;6.75;;;9.10;60.10;;;;;;345433;28;1288;-58
2023/12/07 00:09:05;;;;;;;9.45;6.80;;;9.10;60.10;;;;;;345590;28;1746;-58
2023/12/07 00:09:16;;;;;;;9.13;6.72;;;9.10;60.10;;;;;;345615;28;830;-58
2023/12/07 00:09:26;;;;;;;9.05;6.63;;;9.10;60.10;;;;;;345452;28;1060;-58
2023/12/07 00:09:37;;;;;;;8.40;6.50;;;9.10;60.20;;;;;;345546;28;1690;-58
2023/12/07 00:09:48;;;;;;;8.25;6.43;;;9.10;60.20;;;;;;345589;28;866;-58
2023/12/07 00:09:59;;;;;;;8.18;6.28;;;9.10;60.20;;;;;;345489;28;990;-57
2023/12/07 00:10:10;;;;;;;7.97;6.20;;;9.00;60.20;;;;;;345598;28;826;-58
2023/12/07 00:10:20;;;;;;;8.82;6.18;;;9.10;60.20;;;;;;345585;28;996;-58
2023/12/07 00:10:31;;;;;;;8.48;6.00;;;9.00;60.30;;;;;;345496;28;1000;-58
2023/12/07 00:10:42;;;;;;;7.47;5.90;;;9.10;60.20;;;;;;345548;28;1012;-59
2023/12/07 00:10:53;;;;;;;8.45;6.15;;;9.10;60.20;;;;;;345561;28;1012;-59
2023/12/07 00:11:03;;;;;;;9.15;6.55;;;9.10;60.20;;;;;;345528;28;1044;-59
2023/12/07 00:11:14;;;;;;;9.35;6.68;;;9.10;60.30;;;;;;345576;28;1107;-60
2023/12/07 00:11:25;;;;;;;7.95;6.50;;;9.00;60.30;;;;;;345570;28;1015;-59
2023/12/07 00:11:36;;;;;;;8.50;6.23;;;9.10;60.30;;;;;;345458;28;957;-59
2023/12/07 00:11:46;;;;;;;8.88;6.25;;;9.10;60.30;;;;;;345567;28;1414;-59
2023/12/07 00:11:57;;;;;;;8.73;6.15;;;9.10;60.30;;;;;;345551;28;814;-59
2023/12/07 00:12:08;;;;;;;8.75;6.35;;;9.00;60.30;;;;;;345471;28;981;-59
2023/12/07 00:12:19;;;;;;;8.82;6.55;;;9.10;60.30;;;;;;345585;28;968;-59
2023/12/07 00:12:29;;;;;;;10.07;6.57;;;9.10;60.30;;;;;;345606;28;837;-59
2023/12/07 00:12:40;;;;;;;9.63;6.35;;;9.10;60.30;;;;;;345604;28;987;-59
2023/12/07 00:12:51;;;;;;;10.43;6.40;;;9.10;60.30;;;;;;345503;28;1011;-59
2023/12/07 00:13:02;;;;;;;9.80;6.43;;;9.10;60.30;;;;;;345571;28;884;-59
2023/12/07 00:13:13;;;;;;;9.35;6.38;;;9.00;60.30;;;;;;345597;28;1074;-58
2023/12/07 00:13:23;;;;;;;8.43;6.50;;;9.00;60.30;;;;;;345611;28;1035;-58
2023/12/07 00:13:34;;;;;;;8.23;6.37;;;9.10;60.40;;;;;;345503;28;1024;-59
2023/12/07 00:13:45;;;;;;;8.60;6.45;;;9.00;60.40;;;;;;345593;28;1015;-58
2023/12/07 00:13:55;;;;;;;8.35;6.10;;;9.00;60.30;;;;;;345550;28;830;-59
2023/12/07 00:14:07;;;;;;;8.48;6.22;;;9.10;60.30;;;;;;345643;28;777;-59
2023/12/07 00:14:17;;;;;;;8.35;6.13;;;9.10;60.20;;;;;;345519;28;1256;-59
2023/12/07 00:14:28;;;;;;;9.00;6.25;;;9.10;60.20;;;;;;345602;28;884;-58
2023/12/07 00:14:39;;;;;;;9.32;6.35;;;9.10;60.20;;;;;;345589;28;925;-58
2023/12/07 00:14:50;;;;;;;8.98;6.28;;;9.10;60.20;;;;;;345610;28;1004;-58
2023/12/07 00:15:02;;;;;;;8.37;6.27;;;9.10;60.20;;;;;;345433;28;1057;-58
2023/12/07 00:15:13;;;;;;;8.07;6.22;;;9.10;60.20;;;;;;345590;28;849;-58
2023/12/07 00:15:24;;;;;;;8.70;6.37;;;9.10;60.20;;;;;;345481;28;1195;-60
2023/12/07 00:15:34;;;;;;;9.57;6.47;;;9.10;60.20;;;;;;345556;28;1786;-58
2023/12/07 00:15:45;;;;;;;9.32;6.30;;;9.10;60.20;;;;;;345463;28;988;-58
2023/12/07 00:15:56;;;;;;;9.10;6.30;;;9.10;60.20;;;;;;345606;28;870;-58
2023/12/07 00:16:07;;;;;;;8.38;6.45;;;9.10;60.20;;;;;;345598;28;825;-58
2023/12/07 00:16:17;;;;;;;8.93;6.40;;;9.10;60.10;;;;;;345619;28;863;-58
2023/12/07 00:16:29;;;;;;;9.23;6.43;;;9.10;60.10;;;;;;345539;28;932;-58
2023/12/07 00:16:40;;;;;;;10.20;6.45;;;9.00;60.10;;;;;;345591;28;1147;-59
2023/12/07 00:16:50;;;;;;;9.27;6.50;;;9.10;60.10;;;;;;345572;28;1023;-60
2023/12/07 00:17:01;;;;;;;8.93;6.32;;;9.10;60.10;;;;;;345602;28;964;-57
2023/12/07 00:17:12;;;;;;;7.43;6.00;;;9.10;60.20;;;;;;345534;28;1124;-57
2023/12/07 00:17:23;;;;;;;8.45;5.97;;;9.10;60.10;;;;;;345513;28;988;-58
2023/12/07 00:17:34;;;;;;;9.73;6.43;;;9.10;60.10;;;;;;345596;28;1909;-57
2023/12/07 00:17:44;;;;;;;10.43;6.65;;;9.10;60.00;;;;;;345570;28;976;-60
2023/12/07 00:17:55;;;;;;;9.23;6.57;;;9.10;60.10;;;;;;345529;28;1031;-57
2023/12/07 00:18:06;;;;;;;8.23;6.47;;;9.00;60.10;;;;;;345595;28;1027;-59
2023/12/07 00:18:17;;;;;;;8.25;6.38;;;9.00;60.10;;;;;;345583;28;980;-58
2023/12/07 00:18:28;;;;;;;9.52;6.53;;;9.00;60.20;;;;;;345535;28;1084;-58
2023/12/07 00:18:38;;;;;;;10.18;6.85;;;9.00;60.20;;;;;;345472;28;1345;-58
2023/12/07 00:18:49;;;;;;;9.82;6.80;;;9.00;60.20;;;;;;345436;28;1646;-59
2023/12/07 00:19:00;;;;;;;8.90;6.60;;;9.00;60.20;;;;;;345535;28;980;-59
2023/12/07 00:19:11;;;;;;;8.37;6.23;;;9.10;60.10;;;;;;345579;28;1040;-59
2023/12/07 00:19:21;;;;;;;8.68;6.50;;;9.00;60.10;;;;;;345514;28;1037;-59
2023/12/07 00:19:32;;;;;;;8.75;6.70;;;9.10;60.10;;;;;;345553;28;1282;-58
2023/12/07 00:19:43;;;;;;;8.27;6.47;;;9.10;60.10;;;;;;345623;28;1082;-59
2023/12/07 00:19:55;;;;;;;8.45;6.40;;;9.10;60.10;;;;;;345519;28;1591;-58
2023/12/07 00:20:07;;;;;;;9.02;6.57;;;9.10;60.00;;;;;;345487;28;1067;-58
2023/12/07 00:20:18;;;;;;;9.35;6.65;;;9.10;60.00;;;;;;345564;28;1051;-58
2023/12/07 00:20:29;;;;;;;9.10;6.60;;;9.10;60.00;;;;;;345534;28;932;-58
2023/12/07 00:20:40;;;;;;;9.13;6.65;;;9.10;60.00;;;;;;345588;28;1354;-58
2023/12/07 00:20:50;;;;;;;8.77;6.57;;;9.10;60.00;;;;;;345459;28;1021;-58
2023/12/07 00:21:01;;;;;;;8.33;6.43;;;9.10;60.00;;;;;;345485;28;1146;-58
2023/12/07 00:21:12;;;;;;;8.43;6.70;;;9.10;60.00;;;;;;345566;28;954;-58
2023/12/07 00:21:23;;;;;;;8.88;6.70;;;9.10;60.00;;;;;;345567;28;822;-59
2023/12/07 00:21:34;;;;;;;9.52;6.70;;;9.10;60.00;;;;;;345518;28;1036;-58
2023/12/07 00:21:44;;;;;;;9.30;6.53;;;9.10;60.10;;;;;;345538;28;1041;-58
2023/12/07 00:21:55;;;;;;;7.95;6.32;;;9.00;60.10;;;;;;345471;28;1253;-60
2023/12/07 00:22:06;;;;;;;8.55;6.72;;;9.10;60.20;;;;;;345526;28;1028;-58
2023/12/07 00:22:16;;;;;;;8.37;6.77;;;9.10;60.20;;;;;;345390;28;984;-58
2023/12/07 00:22:28;;;;;;;8.63;6.80;;;9.10;60.20;;;;;;345519;28;920;-58
2023/12/07 00:22:39;;;;;;;7.82;6.63;;;9.10;60.10;;;;;;345485;28;1028;-58
2023/12/07 00:22:49;;;;;;;8.23;6.50;;;9.00;60.10;;;;;;345628;28;841;-58
2023/12/07 00:23:00;;;;;;;8.52;6.57;;;9.10;60.10;;;;;;345421;28;1179;-58
2023/12/07 00:23:11;;;;;;;8.98;6.78;;;9.10;60.10;;;;;;345575;28;939;-58
2023/12/07 00:23:22;;;;;;;8.40;6.93;;;9.00;60.00;;;;;;345446;28;1103;-58
2023/12/07 00:23:33;;;;;;;8.23;6.75;;;9.10;60.10;;;;;;345533;28;1024;-59
2023/12/07 00:23:43;;;;;;;8.73;6.82;;;9.10;60.10;;;;;;345470;28;958;-58
2023/12/07 00:23:54;;;;;;;8.93;6.85;;;9.00;60.00;;;;;;345551;28;972;-58
2023/12/07 00:24:05;;;;;;;8.97;6.67;;;9.10;60.00;;;;;;345539;28;1154;-58
2023/12/07 00:24:16;;;;;;;8.65;6.70;;;9.00;60.00;;;;;;345510;28;984;-59
2023/12/07 00:24:27;;;;;;;8.57;6.45;;;9.00;60.10;;;;;;345423;28;1155;-59
2023/12/07 00:24:37;;;;;;;8.77;6.63;;;9.00;60.10;;;;;;345522;28;980;-58
2023/12/07 00:24:48;;;;;;;9.60;6.88;;;9.00;60.10;;;;;;345445;28;1059;-59
2023/12/07 00:24:59;;;;;;;9.33;6.87;;;9.00;60.10;;;;;;345610;28;853;-58
2023/12/07 00:25:10;;;;;;;8.60;6.70;;;9.00;60.10;;;;;;345497;28;1024;-59
2023/12/07 00:25:21;;;;;;;8.35;6.45;;;9.00;60.10;;;;;;345584;28;815;-59
2023/12/07 00:25:31;;;;;;;9.55;6.70;;;9.00;60.10;;;;;;345561;28;932;-58
2023/12/07 00:25:42;;;;;;;9.10;6.72;;;9.00;60.10;;;;;;345513;28;1143;-58
2023/12/07 00:25:53;;;;;;;8.57;6.45;;;9.00;60.10;;;;;;345434;28;980;-58
2023/12/07 00:26:04;;;;;;;8.63;6.60;;;9.00;60.20;;;;;;345497;28;1158;-58
2023/12/07 00:26:15;;;;;;;9.23;6.70;;;9.00;60.20;;;;;;345492;28;1959;-58
2023/12/07 00:26:26;;;;;;;8.88;6.70;;;9.00;60.20;;;;;;345586;28;1043;-59
2023/12/07 00:26:38;;;;;;;9.23;6.75;;;9.00;60.30;;;;;;345503;28;1278;-58
2023/12/07 00:26:49;;;;;;;9.68;6.68;;;9.00;60.30;;;;;;345575;28;804;-58
2023/12/07 00:27:00;;;;;;;10.95;6.85;;;9.00;60.30;;;;;;345475;28;1008;-58
2023/12/07 00:27:10;;;;;;;11.15;6.90;;;9.00;60.30;;;;;;345513;28;1777;-57
2023/12/07 00:27:21;;;;;;;10.60;7.10;;;9.00;60.30;;;;;;345524;28;1012;-59
2023/12/07 00:27:32;;;;;;;9.93;6.80;;;9.00;60.20;;;;;;345401;28;1093;-58
2023/12/07 00:27:43;;;;;;;8.65;6.47;;;9.00;60.20;;;;;;345552;28;1733;-58
2023/12/07 00:27:53;;;;;;;8.15;6.40;;;9.00;60.30;;;;;;345515;28;1028;-58
2023/12/07 00:28:05;;;;;;;9.27;6.55;;;9.00;60.30;;;;;;345546;28;1090;-58
2023/12/07 00:28:16;;;;;;;10.32;6.57;;;9.00;60.30;;;;;;345471;28;940;-59
2023/12/07 00:28:26;;;;;;;10.02;6.57;;;9.00;60.30;;;;;;345541;28;1159;-59
2023/12/07 00:28:37;;;;;;;8.80;6.57;;;9.00;60.30;;;;;;345519;28;1122;-58
2023/12/07 00:28:48;;;;;;;8.15;6.68;;;9.00;60.40;;;;;;345533;28;972;-58
2023/12/07 00:28:59;;;;;;;7.83;6.57;;;9.00;60.40;;;;;;345439;28;1038;-58
2023/12/07 00:29:09;;;;;;;7.95;6.50;;;9.00;60.40;;;;;;345573;28;972;-58
2023/12/07 00:29:20;;;;;;;8.27;6.45;;;9.00;60.40;;;;;;345541;28;880;-58
2023/12/07 00:29:31;;;;;;;8.70;6.72;;;9.00;60.50;;;;;;345536;28;1182;-58
2023/12/07 00:29:42;;;;;;;9.05;7.00;;;9.00;60.40;;;;;;345483;28;1050;-58
2023/12/07 00:29:52;;;;;;;9.32;7.35;;;9.00;60.30;;;;;;345543;28;971;-58
2023/12/07 00:30:04;;;;;;;9.43;7.27;;;9.00;60.20;;;;;;345546;28;1087;-59
2023/12/07 00:30:14;;;;;;;9.50;7.00;;;9.00;60.20;;;;;;345582;28;1027;-58
2023/12/07 00:30:25;;;;;;;8.73;6.70;;;9.00;60.30;;;;;;345491;28;1074;-58
2023/12/07 00:30:36;;;;;;;8.60;6.73;;;9.00;60.30;;;;;;345521;28;1054;-58
2023/12/07 00:30:47;;;;;;;8.50;6.70;;;9.00;60.30;;;;;;345517;28;854;-58
2023/12/07 00:30:58;;;;;;;8.68;6.65;;;9.00;60.30;;;;;;345481;28;810;-58
2023/12/07 00:31:10;;;;;;;7.78;6.10;;;9.00;60.30;;;;;;345518;28;1014;-58
2023/12/07 00:31:21;;;;;;;7.85;6.28;;;9.00;60.30;;;;;;345509;28;1334;-58
2023/12/07 00:31:32;;;;;;;8.10;6.68;;;9.00;60.30;;;;;;345518;28;953;-59
2023/12/07 00:31:43;;;;;;;9.77;6.97;;;9.00;60.30;;;;;;345412;28;1004;-58
2023/12/07 00:31:54;;;;;;;10.35;6.88;;;9.00;60.40;;;;;;345545;28;1008;-58
2023/12/07 00:32:05;;;;;;;10.18;6.88;;;9.00;60.40;;;;;;345501;28;1131;-59
2023/12/07 00:32:17;;;;;;;8.70;6.90;;;9.00;60.40;;;;;;345443;28;1047;-58
2023/12/07 00:32:28;;;;;;;11.22;6.98;;;9.00;60.40;;;;;;345556;28;1047;-58
2023/12/07 00:32:40;;;;;;;10.83;6.53;;;9.00;60.40;;;;;;345489;28;1092;-58
2023/12/07 00:32:50;;;;;;;11.65;6.50;;;9.00;60.40;;;;;;345588;28;897;-58
2023/12/07 00:33:01;;;;;;;9.82;6.47;;;9.00;60.40;;;;;;345500;28;819;-59
2023/12/07 00:33:12;;;;;;;10.07;6.57;;;9.00;60.40;;;;;;345455;28;1113;-58
2023/12/07 00:33:22;;;;;;;8.75;6.53;;;9.00;60.30;;;;;;345547;28;1020;-57
2023/12/07 00:33:33;;;;;;;8.10;6.30;;;9.00;60.30;;;;;;345489;28;1064;-59
2023/12/07 00:33:45;;;;;;;7.75;6.15;;;9.00;60.30;;;;;;345586;28;1082;-58
2023/12/07 00:33:56;;;;;;;8.85;6.30;;;9.00;60.30;;;;;;345577;28;989;-58
2023/12/07 00:34:09;;;;;;;9.98;6.85;;;9.00;60.30;;;;;;345455;28;912;-57
2023/12/07 00:34:20;;;;;;;10.15;7.18;;;9.00;60.30;;;;;;345511;28;1190;-59
2023/12/07 00:34:31;;;;;;;9.73;6.95;;;9.00;60.30;;;;;;345496;28;1024;-58
2023/12/07 00:34:42;;;;;;;9.23;6.68;;;9.00;60.30;;;;;;345581;28;1039;-58
2023/12/07 00:34:52;;;;;;;9.50;6.70;;;9.00;60.30;;;;;;345497;28;976;-59
2023/12/07 00:35:04;;;;;;;8.85;6.80;;;8.90;60.30;;;;;;345486;28;1000;-58
2023/12/07 00:35:16;;;;;;;9.27;6.78;;;9.00;60.30;;;;;;345507;28;1126;-58
2023/12/07 00:35:28;;;;;;;8.88;6.32;;;9.00;60.30;;;;;;345531;28;1003;-59
2023/12/07 00:35:39;;;;;;;8.82;6.20;;;9.00;60.30;;;;;;345581;28;1193;-58
2023/12/07 00:35:50;;;;;;;8.57;6.15;;;9.00;60.30;;;;;;345570;28;876;-59
2023/12/07 00:36:01;;;;;;;9.57;6.47;;;9.00;60.40;;;;;;345387;28;1162;-59
2023/12/07 00:36:12;;;;;;;9.73;6.63;;;9.00;60.40;;;;;;345531;28;1027;-58
2023/12/07 00:36:23;;;;;;;8.35;6.45;;;9.00;60.40;;;;;;345604;28;976;-59
2023/12/07 00:36:33;;;;;;;9.35;7.03;;;9.00;60.40;;;;;;345486;28;1187;-58
2023/12/07 00:36:44;;;;;;;9.57;7.23;;;9.00;60.40;;;;;;345468;28;976;-58
2023/12/07 00:36:55;;;;;;;10.00;7.38;;;9.00;60.30;;;;;;345432;28;1036;-58
2023/12/07 00:37:07;;;;;;;9.13;7.05;;;9.00;60.20;;;;;;345545;28;968;-58
2023/12/07 00:37:17;;;;;;;9.18;7.20;;;9.00;60.20;;;;;;345586;28;1007;-58
2023/12/07 00:37:28;;;;;;;10.17;7.20;;;9.00;60.30;;;;;;345543;28;891;-58
2023/12/07 00:37:39;;;;;;;11.45;7.03;;;9.00;60.40;;;;;;345393;28;1963;-57
2023/12/07 00:37:50;;;;;;;11.55;6.78;;;9.00;60.40;;;;;;345507;28;1063;-57
2023/12/07 00:38:00;;;;;;;8.80;6.50;;;9.00;60.40;;;;;;345576;28;1034;-59
2023/12/07 00:38:11;;;;;;;8.73;6.32;;;8.90;60.50;;;;;;345567;28;911;-58
2023/12/07 00:38:22;;;;;;;8.65;6.10;;;9.00;60.40;;;;;;345508;28;822;-58
2023/12/07 00:38:33;;;;;;;9.53;6.43;;;9.00;60.40;;;;;;345583;28;889;-59
2023/12/07 00:38:43;;;;;;;9.80;6.60;;;9.00;60.30;;;;;;345467;28;1011;-58
2023/12/07 00:38:55;;;;;;;9.73;6.88;;;9.00;60.30;;;;;;345549;28;1035;-58
2023/12/07 00:39:06;;;;;;;9.20;6.80;;;9.00;60.20;;;;;;345574;28;841;-58
2023/12/07 00:39:18;;;;;;;8.52;6.93;;;9.00;60.20;;;;;;345523;28;1099;-58
2023/12/07 00:39:29;;;;;;;8.52;6.78;;;9.00;60.20;;;;;;345567;28;877;-58
2023/12/07 00:39:41;;;;;;;8.20;6.80;;;8.90;60.30;;;;;;345431;28;1019;-58
2023/12/07 00:39:52;;;;;;;7.97;6.70;;;9.00;60.30;;;;;;345535;28;892;-58
2023/12/07 00:40:03;;;;;;;8.40;6.70;;;9.00;60.30;;;;;;345446;28;1079;-58
2023/12/07 00:40:14;;;;;;;9.77;6.70;;;9.00;60.20;;;;;;345567;28;885;-58
2023/12/07 00:40:26;;;;;;;10.80;7.10;;;9.00;60.20;;;;;;345439;28;1587;-58
2023/12/07 00:40:39;;;;;;;10.40;7.07;;;9.00;60.30;;;;;;345393;28;1043;-59
2023/12/07 00:40:50;;;;;;;9.93;6.88;;;8.90;60.30;;;;;;345427;28;1014;-59
2023/12/07 00:41:01;;;;;;;8.45;6.43;;;9.00;60.30;;;;;;345444;28;876;-58
2023/12/07 00:41:12;;;;;;;8.88;6.35;;;8.90;60.30;;;;;;345440;28;960;-58
2023/12/07 00:41:22;;;;;;;8.63;6.38;;;9.00;60.30;;;;;;345435;28;1003;-59
2023/12/07 00:41:33;;;;;;;8.75;6.43;;;8.90;60.40;;;;;;345376;28;1106;-59
2023/12/07 00:41:44;;;;;;;8.77;6.50;;;9.00;60.40;;;;;;345488;28;1051;-59
2023/12/07 00:41:55;;;;;;;8.90;6.40;;;8.90;60.40;;;;;;345460;28;1012;-58
2023/12/07 00:42:05;;;;;;;9.63;6.50;;;8.90;60.50;;;;;;345458;28;988;-59
2023/12/07 00:42:16;;;;;;;9.50;6.45;;;9.00;60.50;;;;;;345454;28;1000;-59
2023/12/07 00:42:27;;;;;;;8.88;6.45;;;8.90;60.50;;;;;;345481;28;1012;-59
2023/12/07 00:42:38;;;;;;;8.37;6.33;;;8.90;60.50;;;;;;345539;28;1016;-58
2023/12/07 00:42:48;;;;;;;8.65;6.38;;;8.90;60.50;;;;;;345502;28;972;-59
2023/12/07 00:42:59;;;;;;;9.57;6.40;;;9.00;60.50;;;;;;345529;28;889;-58
2023/12/07 00:43:10;;;;;;;10.88;6.72;;;8.90;60.40;;;;;;345424;28;1115;-58
2023/12/07 00:43:20;;;;;;;11.27;6.65;;;8.90;60.40;;;;;;345532;28;1044;-59
2023/12/07 00:43:31;;;;;;;10.17;6.60;;;8.90;60.40;;;;;;345527;28;960;-59
2023/12/07 00:43:42;;;;;;;11.20;6.75;;;9.00;60.30;;;;;;345544;28;722;-59
2023/12/07 00:43:53;;;;;;;10.00;6.68;;;9.00;60.30;;;;;;345393;28;1107;-60
2023/12/07 00:44:03;;;;;;;10.00;6.90;;;8.90;60.30;;;;;;345513;28;1035;-59
2023/12/07 00:44:14;;;;;;;8.27;6.97;;;8.90;60.30;;;;;;345518;28;830;-59
2023/12/07 00:44:25;;;;;;;9.43;7.07;;;8.90;60.30;;;;;;345417;28;845;-59
2023/12/07 00:44:42;;;;;;;9.75;7.00;;;9.00;60.30;;;;;;345275;28;1032;-59
2023/12/07 00:44:53;;;;;;;8.65;6.97;;;9.00;60.40;;;;;;345432;28;952;-58
2023/12/07 00:45:04;;;;;;;8.85;6.90;;;8.90;60.30;;;;;;345529;28;1095;-58
2023/12/07 00:45:15;;;;;;;9.23;6.75;;;9.00;60.30;;;;;;345495;28;1027;-59
2023/12/07 00:45:26;;;;;;;9.02;6.65;;;8.90;60.30;;;;;;345583;28;1162;-59
2023/12/07 00:45:37;;;;;;;9.10;6.68;;;8.90;60.30;;;;;;345505;28;710;-59
2023/12/07 00:45:47;;;;;;;8.60;6.60;;;9.00;60.30;;;;;;345535;28;1040;-59
2023/12/07 00:45:58;;;;;;;8.30;6.55;;;8.90;60.20;;;;;;345432;28;1131;-58
2023/12/07 00:46:09;;;;;;;8.65;6.68;;;9.00;60.20;;;;;;345548;28;861;-59
2023/12/07 00:46:20;;;;;;;9.90;6.82;;;9.00;60.20;;;;;;345514;28;996;-59
2023/12/07 00:46:30;;;;;;;10.17;6.80;;;8.90;60.20;;;;;;345517;28;826;-58
2023/12/07 00:46:41;;;;;;;9.40;6.53;;;9.00;60.30;;;;;;345505;28;991;-59
2023/12/07 00:46:52;;;;;;;8.57;6.68;;;8.90;60.30;;;;;;345589;28;960;-59
2023/12/07 00:47:03;;;;;;;8.48;6.70;;;9.00;60.30;;;;;;345464;28;1016;-59
2023/12/07 00:47:13;;;;;;;8.50;6.80;;;8.90;60.20;;;;;;345551;28;937;-59
2023/12/07 00:47:24;;;;;;;9.67;7.03;;;9.00;60.20;;;;;;345495;28;927;-58
2023/12/07 00:47:35;;;;;;;10.00;6.82;;;9.00;60.30;;;;;;345526;28;1011;-59
2023/12/07 00:47:46;;;;;;;10.75;6.80;;;8.90;60.30;;;;;;345417;28;1574;-58
2023/12/07 00:47:56;;;;;;;10.25;6.63;;;9.00;60.20;;;;;;345573;28;881;-59
2023/12/07 00:48:07;;;;;;;11.70;7.03;;;9.00;60.30;;;;;;345570;28;857;-58
2023/12/07 00:48:18;;;;;;;10.70;6.72;;;9.00;60.20;;;;;;345408;28;1076;-58
2023/12/07 00:48:29;;;;;;;9.93;6.63;;;8.90;60.30;;;;;;345506;28;1001;-59
2023/12/07 00:48:40;;;;;;;10.02;6.85;;;9.00;60.20;;;;;;345524;28;826;-59
2023/12/07 00:48:50;;;;;;;11.65;7.30;;;9.00;60.20;;;;;;345509;28;1194;-59
2023/12/07 00:49:01;;;;;;;11.63;7.28;;;9.00;60.20;;;;;;345560;28;853;-58
2023/12/07 00:49:12;;;;;;;9.15;6.78;;;9.00;60.20;;;;;;345442;28;884;-59
2023/12/07 00:49:23;;;;;;;8.75;6.90;;;8.90;60.20;;;;;;345560;28;1065;-59
2023/12/07 00:49:37;;;;;;;8.25;6.65;;;9.00;60.20;;;;;;345542;28;1004;-58
2023/12/07 00:49:48;;;;;;;8.30;6.58;;;9.00;60.20;;;;;;345578;28;1007;-58
2023/12/07 00:49:58;;;;;;;8.93;6.63;;;9.00;60.20;;;;;;345486;28;1031;-58
2023/12/07 00:50:13;;;;;;;9.35;6.80;;;8.90;60.10;;;;;;345535;28;968;-58
2023/12/07 00:50:24;;;;;;;10.80;7.03;;;9.00;60.10;;;;;;345533;28;1857;-58
2023/12/07 00:50:35;;;;;;;9.52;6.72;;;8.90;60.20;;;;;;345528;28;1087;-59
2023/12/07 00:50:46;;;;;;;9.63;6.90;;;8.90;60.20;;;;;;345441;28;1071;-58
2023/12/07 00:50:57;;;;;;;8.27;6.80;;;8.90;60.20;;;;;;345555;28;1115;-59
2023/12/07 00:51:08;;;;;;;9.05;6.93;;;8.90;60.30;;;;;;345503;28;889;-59
2023/12/07 00:51:18;;;;;;;9.27;6.90;;;9.00;60.30;;;;;;345551;28;896;-58
2023/12/07 00:51:29;;;;;;;9.77;7.05;;;8.90;60.30;;;;;;345552;28;908;-58
2023/12/07 00:51:40;;;;;;;10.00;6.97;;;8.90;60.40;;;;;;345455;28;1079;-58
2023/12/07 00:51:51;;;;;;;9.95;6.95;;;8.90;60.30;;;;;;345524;28;1153;-58
2023/12/07 00:52:02;;;;;;;9.13;6.72;;;8.90;60.30;;;;;;345593;28;1032;-58
2023/12/07 00:52:13;;;;;;;9.38;6.97;;;8.90;60.30;;;;;;345537;28;825;-58
2023/12/07 00:52:24;;;;;;;9.80;7.25;;;9.00;60.30;;;;;;345550;28;714;-57
2023/12/07 00:52:34;;;;;;;10.95;7.43;;;8.90;60.30;;;;;;345427;28;1067;-59
2023/12/07 00:52:45;;;;;;;10.63;7.15;;;8.90;60.30;;;;;;345548;28;1044;-57
2023/12/07 00:52:56;;;;;;;9.57;6.63;;;8.90;60.30;;;;;;345560;28;973;-59
2023/12/07 00:53:07;;;;;;;8.80;6.43;;;8.90;60.20;;;;;;345490;28;1018;-58
2023/12/07 00:53:17;;;;;;;8.65;6.68;;;9.00;60.30;;;;;;345510;28;988;-59
2023/12/07 00:53:28;;;;;;;9.23;7.00;;;9.00;60.30;;;;;;345487;28;1067;-58
2023/12/07 00:53:39;;;;;;;8.95;7.30;;;9.00;60.40;;;;;;345453;28;1557;-58
2023/12/07 00:53:50;;;;;;;9.20;7.25;;;9.00;60.40;;;;;;345414;28;1588;-59
2023/12/07 00:54:00;;;;;;;9.07;7.30;;;8.90;60.30;;;;;;345448;28;1035;-58
2023/12/07 00:54:11;;;;;;;9.57;7.07;;;9.00;60.30;;;;;;345456;28;1035;-59
2023/12/07 00:54:22;;;;;;;9.63;6.90;;;9.00;60.20;;;;;;345508;28;994;-59
2023/12/07 00:54:33;;;;;;;9.30;6.72;;;9.00;60.30;;;;;;345527;28;826;-60
2023/12/07 00:54:44;;;;;;;10.38;7.20;;;9.00;60.30;;;;;;345493;28;975;-58
2023/12/07 00:54:54;;;;;;;10.02;7.35;;;9.00;60.30;;;;;;345535;28;992;-58
2023/12/07 00:55:06;;;;;;;9.55;7.47;;;9.00;60.30;;;;;;345521;28;1039;-58
2023/12/07 00:55:16;;;;;;;9.05;7.28;;;9.00;60.30;;;;;;345485;28;1011;-58
2023/12/07 00:55:27;;;;;;;9.80;7.13;;;9.00;60.30;;;;;;345521;28;1289;-58
2023/12/07 00:55:38;;;;;;;10.18;6.85;;;9.00;60.40;;;;;;345557;28;1055;-58
2023/12/07 00:55:49;;;;;;;9.55;6.63;;;9.00;60.40;;;;;;345429;28;1180;-59
2023/12/07 00:56:02;;;;;;;9.25;6.47;;;9.00;60.30;;;;;;345537;28;996;-58
2023/12/07 00:56:12;;;;;;;10.60;6.90;;;9.00;60.40;;;;;;345560;28;1094;-58
2023/12/07 00:56:23;;;;;;;11.25;7.07;;;9.00;60.40;;;;;;345470;28;1122;-58
2023/12/07 00:56:35;;;;;;;10.95;7.20;;;9.00;60.30;;;;;;345508;28;2636;-59
2023/12/07 00:56:46;;;;;;;8.20;6.53;;;9.00;60.30;;;;;;345500;28;1103;-58
2023/12/07 00:56:57;;;;;;;8.43;6.53;;;9.00;60.40;;;;;;345359;28;1086;-59
2023/12/07 00:57:08;;;;;;;8.77;6.57;;;9.00;60.40;;;;;;345537;28;1176;-57
2023/12/07 00:57:19;;;;;;;9.10;6.68;;;9.00;60.40;;;;;;345501;28;1005;-58
2023/12/07 00:57:30;;;;;;;8.70;6.60;;;9.00;60.40;;;;;;345417;28;1013;-58
2023/12/07 00:57:41;;;;;;;9.15;6.70;;;9.00;60.40;;;;;;345427;28;1907;-58
2023/12/07 00:57:51;;;;;;;9.45;7.07;;;9.00;60.30;;;;;;345515;28;825;-59
2023/12/07 00:58:02;;;;;;;9.73;6.90;;;9.00;60.20;;;;;;345521;28;1677;-58
2023/12/07 00:58:13;;;;;;;9.85;7.10;;;9.00;60.20;;;;;;345484;28;967;-63
2023/12/07 00:58:24;;;;;;;10.15;6.97;;;9.00;60.20;;;;;;345511;28;838;-58
2023/12/07 00:58:36;;;;;;;10.60;7.13;;;9.00;60.20;;;;;;345489;28;1460;-58
2023/12/07 00:58:46;;;;;;;10.00;6.75;;;9.00;60.20;;;;;;345432;28;868;-58
2023/12/07 00:58:57;;;;;;;9.82;6.75;;;9.00;60.20;;;;;;345515;28;997;-59
2023/12/07 00:59:08;;;;;;;9.27;6.75;;;9.00;60.20;;;;;;345520;28;1020;-58
2023/12/07 00:59:19;;;;;;;9.53;6.77;;;9.00;60.20;;;;;;345566;28;655;-58
2023/12/07 00:59:33;;;;;;;9.27;6.75;;;9.00;60.20;;;;;;345384;28;1104;-58